Weather at Kefar Gallim Highway Strip

Public forecast

Using degrees Celsius for public forecast. Weather courtesy of forecast.io.

Closest aviation weather report (METAR) to Kefar Gallim Highway Strip

Report is more than 2 hours old.

Closest report is Haifa International Airport, 5.4 nm (9.9 km) ENE.

2024/07/17 15:50 (retrieved 4 hours ago)

LLHA 171550Z 32007KT 9999 FEW020 29/23 Q1006

Closest aviation forecast (TAF) to Kefar Gallim Highway Strip

Closest forecast is Haifa International Airport, 5.4 nm (9.9 km) ENE.

2024/07/17 18:00 (retrieved 2 hours ago)

TAF LLHA 171703Z 1718/1818 34006KT 9999 SCT017 BECMG 1719/1721 VRB04KT PROB40 TEMPO 1721/1806 BKN015 BECMG 1806/1808 26010KT 9999 FEW020 BECMG 1814/1816 32007KT SCT015 TX33/1810Z TN26/1803Z